ZWWW/URC METAR and TAF weather

Enter ICAO airport designator
Station Type Date Time Source
ZWWW METAR 2021/05/12 23:30 UTC NOAA

ZWWW 122330Z 22002MPS 170V300 CAVOK 12/02 Q1020 NOSIG


Station Type Date Time Source
ZWWW Decoded METAR 2021/05/12 23:30 UTC NOAA

Urum-Qi / Diwopu, China (ZWWW) 43-54N 087-28E
May 12, 2021 - 07:30 PM EDT / 2021.05.12 2330 UTC
Wind: from the SW (220 degrees) at 4 MPH (4 KT) (direction variable):0
Visibility: greater than 7 mile(s):0
Temperature: 53 F (12 C)
Dew Point: 35 F (2 C)
Relative Humidity: 50%
Pressure (altimeter): 30.12 in. Hg (1020 hPa)
ob: ZWWW 122330Z 22002MPS 170V300 CAVOK 12/02 Q1020 NOSIG
cycle: 23

Station Type Date Time Source
ZWWW TAF 2021/05/12 18:03 UTC NOAA

TAF ZWWW 121509Z 1218/1318 20004MPS CAVOK TX19/1309Z TN09/1223Z
BECMG 1303/1304 36004MPS
BECMG 1313/1314 18004MPS

Example: see airport list